Terminal Aerodrome Forecast
Issued by NWS

Home | Current Version | Previous Version | Text Only | Print | Product List | Glossary On
Versions: 1 2 3 4 5 6 7 8 9 10 11 12 13 14 15 16 17 18 19 20 21 22 23 24 25 26 27 28 29 30 31 32
000
FTUS42 KCAE 240230 AAA
TAFOGB
TAF AMD
KOGB 240230Z 2403/2424 15003KT P6SM SKC
     FM240800 00000KT 4SM BR BKN040
     FM241000 00000KT 2SM BR BKN012
      TEMPO 2410/2413 1SM BR OVC007
     FM241500 21007KT P6SM BKN035
     FM241900 22008KT P6SM BKN050=

USA.gov is the U.S. government's official web portal to all federal, state and local government web resources and services.